ADDS METAR Data INFO
IDs: Format: Raw Decoded Include TAF

Data at: 0346 UTC 18 Oct 2017

KBOI 180253Z AUTO 00000KT 10SM CLR 09/01 A3008 RMK AO2 SLP187 T00940006 53007 $
KBOI 180153Z 00000KT 10SM CLR 13/01 A3006 RMK AO2 SLP178 T01280011 $
KBOI 180053Z 29006KT 5SM HZ CLR 15/01 A3006 RMK AO2 SLP175 T01500011 $
KBOI 172353Z 31003KT 5SM HZ CLR 18/M01 A3005 RMK AO2 SLP172 T01831011 10194 20111 56019 $
KBOI 172253Z 07003KT 10SM CLR 18/M02 A3006 RMK AO2 SLP174 T01831022 $
KBOI 172153Z 00000KT 10SM CLR 17/M02 A3009 RMK AO2 SLP182 T01721022 $
KBOI 172053Z 33004KT 10SM CLR 17/M01 A3011 RMK AO2 SLP191 T01671011 58020 $
KBOI 171953Z 07003KT 10SM CLR 15/M01 A3014 RMK AO2 SLP203 T01501011 $
KBOI 171853Z 35008KT 10SM CLR 12/M02 A3017 RMK AO2 SLP214 T01171017 $
KBOI 171753Z 36006KT 10SM CLR 12/M01 A3018 RMK AO2 SLP219 T01171006 10117 20033 50002 $
KBOI 171653Z 04003KT 10SM CLR 10/00 A3018 RMK AO2 SLP219 T01000000 $
KBOI 171553Z 02003KT 10SM CLR 08/00 A3018 RMK AO2 SLP221 T00780000 $
KBOI 171453Z 07005KT 10SM CLR 06/M02 A3017 RMK AO2 SLP218 T00611017 56011 $
KBOI 171353Z 15006KT 10SM 06/M02 A3018 RMK AO2 SLP219 T00561022 $
KBOI 171253Z 14007KT 10SM CLR 04/M02 A3020 RMK AO2 SLP224 T00441017
KBOI 171153Z 00000KT 10SM CLR 04/M01 A3021 RMK AO2 SLP225 T00391011 10078 20033 55006 $
KBOI 171053Z 00000KT 10SM CLR 06/M01 A3020 RMK AO2 SLP220 T00561011 $
KBOI 170953Z 14004KT 10SM CLR 07/M02 A3022 RMK AO2 SLP228 T00671017 $
KBOI 170853Z 16003KT 10SM CLR 07/M01 A3023 RMK AO2 SLP230 T00721011 56006 $
KBOI 170753Z 11005KT 10SM CLR 06/M01 A3023 RMK AO2 SLP235 T00611011 $
KBOI 170653Z 13006KT 10SM CLR 08/M01 A3024 RMK AO2 SLP238 T00781011 401780011 $
KBOI 170553Z 13005KT 10SM CLR 07/M01 A3025 RMK AO2 SLP244 T00671006 10178 20067 58001 $
KBOI 170453Z 15003KT 10SM CLR 08/M01 A3026 RMK AO2 SLP247 T00831006
KBOI 170353Z 15005KT 10SM CLR 08/M01 A3025 RMK AO2 SLP247 T00781011
KBOI 170253Z 00000KT 10SM CLR 11/M01 A3025 RMK AO2 SLP247 T01111006 56003
KBOI 170153Z 31005KT 10SM CLR 13/00 A3025 RMK AO2 SLP246 T01280000
KBOI 170053Z 29004KT 10SM CLR 16/M01 A3025 RMK AO2 SLP244 T01561011
KBOI 162353Z 00000KT 10SM CLR 18/M02 A3026 RMK AO2 SLP244 T01781022 10178 20111 58017
KBOI 162315Z 36004KT 10SM CLR 18/M03 A3028 RMK AO2 T01781028
KBOI 162253Z VRB05KT 10SM R10R/1800VP6000FT CLR 18/M02 A3028 RMK AO2 SLP252 T01781022
KBOI 162153Z 00000KT 10SM R10R/1400VP6000FT CLR 17/M03 A3029 RMK AO2 SLP258 T01671033
KBOI 162053Z 33004KT 10SM R10R/5000VP6000FT CLR 17/M03 A3031 RMK AO2 SLP264 T01671033 58024
KBOI 161953Z 00000KT 10SM R10R/5500VP6000FT CLR 15/M03 A3035 RMK AO2 SLP278 T01501033 $
KBOI 161853Z VRB03KT 10SM R10R/3000VP6000FT CLR 12/M03 A3037 RMK AO2 SLP286 T01221033 $
KBOI 161753Z 13005KT 10SM CLR 11/M03 A3039 RMK AO2 SLP295 T01111028 10117 20011 50002 $
KBOI 161653Z 12004KT 10SM R10R/3000VP6000FT 09/M02 A3040 RMK AO2 SLP299 T00941022 $
KBOI 161553Z 00000KT 10SM R10R/5000VP6000FT CLR 06/M02 A3040 RMK AO2 SLP302 T00611017